Time;durP1;ratioP1;P1;durP2;ratioP2;P2;SDS_P1;SDS_P2;PMS_P1;PMS_P2;Temp;Humidity;BMP_temperature;BMP_pressure;BME280_temperature;BME280_humidity;BME280_pressure;Samples;Min_cycle;Max_cycle;Signal;HPM_P1;HPM_P2
2021/10/30 00:00:08;;;;;;;;;22.75;21.50;;;;;;;;5090849;27;53675;-70
2021/10/30 00:02:33;;;;;;;;;19.00;18.50;;;;;;;;5091001;27;49752;-65
2021/10/30 00:04:59;;;;;;;;;19.75;19.25;;;;;;;;5089435;27;49916;-65
2021/10/30 00:07:24;;;;;;;;;23.25;20.00;;;;;;;;5090598;27;49576;-65
2021/10/30 00:09:49;;;;;;;;;22.75;17.75;;;;;;;;5091060;27;49726;-64
2021/10/30 00:12:14;;;;;;;;;21.50;20.00;;;;;;;;5089796;27;49775;-65
2021/10/30 00:14:42;;;;;;;;;24.75;20.25;;;;;;;;5090165;27;51551;-65
2021/10/30 00:17:08;;;;;;;;;22.50;21.50;;;;;;;;5090779;27;50511;-65
2021/10/30 00:19:33;;;;;;;;;20.00;19.25;;;;;;;;5090645;27;49629;-66
2021/10/30 00:21:58;;;;;;;;;19.25;18.25;;;;;;;;5091551;27;49915;-65
2021/10/30 00:24:23;;;;;;;;;19.25;16.00;;;;;;;;5091044;27;49783;-65
2021/10/30 00:26:49;;;;;;;;;21.75;19.25;;;;;;;;5090626;27;50962;-65
2021/10/30 00:29:14;;;;;;;;;15.25;15.25;;;;;;;;5091034;27;49744;-65
2021/10/30 00:31:39;;;;;;;;;16.75;16.75;;;;;;;;5089764;27;49592;-65
2021/10/30 00:34:05;;;;;;;;;18.00;16.25;;;;;;;;5090550;27;50683;-65
2021/10/30 00:36:30;;;;;;;;;19.75;18.75;;;;;;;;5090525;27;50456;-65
2021/10/30 00:38:55;;;;;;;;;15.25;14.00;;;;;;;;5090938;27;49923;-65
2021/10/30 00:41:20;;;;;;;;;15.75;15.75;;;;;;;;5090294;27;54972;-64
2021/10/30 00:43:48;;;;;;;;;20.75;18.00;;;;;;;;5091014;27;49764;-65
2021/10/30 00:46:13;;;;;;;;;18.50;17.25;;;;;;;;5090620;27;50487;-64
2021/10/30 00:48:41;;;;;;;;;22.50;16.25;;;;;;;;5090018;27;62962;-64
2021/10/30 00:51:06;;;;;;;;;16.50;16.50;;;;;;;;5089354;27;49777;-65
2021/10/30 00:53:31;;;;;;;;;22.00;19.00;;;;;;;;5089586;27;49847;-64
2021/10/30 00:55:58;;;;;;;;;15.50;15.50;;;;;;;;5089050;27;50512;-64
2021/10/30 00:58:23;;;;;;;;;15.00;14.50;;;;;;;;5090518;27;49675;-64
2021/10/30 01:00:49;;;;;;;;;15.50;15.50;;;;;;;;5088788;27;56301;-65
2021/10/30 01:03:14;;;;;;;;;21.25;14.50;;;;;;;;5090972;27;49599;-64
2021/10/30 01:05:39;;;;;;;;;15.00;14.00;;;;;;;;5089619;27;54532;-67
2021/10/30 01:08:05;;;;;;;;;17.75;15.00;;;;;;;;5090538;27;49857;-65
2021/10/30 01:10:30;;;;;;;;;15.75;15.25;;;;;;;;5090581;27;49717;-66
2021/10/30 01:12:55;;;;;;;;;12.25;12.25;;;;;;;;5090098;27;53838;-65
2021/10/30 01:15:20;;;;;;;;;14.00;13.00;;;;;;;;5090424;27;49856;-65
2021/10/30 01:17:45;;;;;;;;;16.50;14.00;;;;;;;;5089086;27;49759;-65
2021/10/30 01:20:18;;;;;;;;;14.00;13.00;;;;;;;;5090117;27;49754;-64
2021/10/30 01:22:43;;;;;;;;;14.50;14.50;;;;;;;;5089321;27;49856;-65
2021/10/30 01:25:08;;;;;;;;;14.50;14.25;;;;;;;;5090023;27;71306;-65
2021/10/30 01:27:33;;;;;;;;;21.00;16.00;;;;;;;;5093629;27;50407;-64
2021/10/30 01:29:58;;;;;;;;;15.00;14.75;;;;;;;;5093521;27;53182;-65
2021/10/30 01:32:24;;;;;;;;;15.00;13.50;;;;;;;;5092250;27;50001;-65
2021/10/30 01:34:49;;;;;;;;;19.00;17.25;;;;;;;;5093004;27;57585;-65
2021/10/30 01:37:14;;;;;;;;;15.75;15.00;;;;;;;;5093564;27;49759;-77
2021/10/30 01:39:40;;;;;;;;;14.75;13.75;;;;;;;;5093776;27;49778;-71
2021/10/30 01:42:05;;;;;;;;;16.00;15.50;;;;;;;;5092729;27;49816;-66
2021/10/30 01:44:30;;;;;;;;;13.00;12.25;;;;;;;;5091286;27;51946;-66
2021/10/30 01:46:56;;;;;;;;;14.00;12.75;;;;;;;;5093002;27;59471;-65
2021/10/30 01:49:21;;;;;;;;;15.50;15.50;;;;;;;;5093387;27;49759;-65
2021/10/30 01:51:46;;;;;;;;;10.75;10.75;;;;;;;;5092502;27;49917;-65
2021/10/30 01:54:12;;;;;;;;;15.50;15.25;;;;;;;;5093182;27;52964;-71
2021/10/30 01:56:37;;;;;;;;;15.25;13.50;;;;;;;;5092981;27;63094;-75
2021/10/30 01:59:02;;;;;;;;;13.75;13.75;;;;;;;;5093886;27;49834;-79
2021/10/30 02:01:27;;;;;;;;;13.00;11.75;;;;;;;;5093547;27;49626;-65
2021/10/30 02:03:52;;;;;;;;;13.75;13.75;;;;;;;;5091693;27;51169;-64
2021/10/30 02:06:18;;;;;;;;;16.25;14.50;;;;;;;;5092204;27;53230;-65
2021/10/30 02:08:43;;;;;;;;;13.00;12.25;;;;;;;;5092912;27;49675;-65
2021/10/30 02:11:08;;;;;;;;;13.25;12.00;;;;;;;;5093062;27;49879;-64
2021/10/30 02:13:33;;;;;;;;;12.25;12.25;;;;;;;;5092952;27;50241;-65
2021/10/30 02:15:58;;;;;;;;;12.25;10.50;;;;;;;;5093409;27;49990;-65
2021/10/30 02:18:24;;;;;;;;;12.25;12.25;;;;;;;;5091658;27;49662;-64
2021/10/30 02:20:49;;;;;;;;;9.50;9.50;;;;;;;;5092804;27;49656;-64
2021/10/30 02:23:17;;;;;;;;;14.25;12.50;;;;;;;;5091469;27;49960;-65
2021/10/30 02:25:42;;;;;;;;;11.00;10.50;;;;;;;;5091451;27;49752;-65
2021/10/30 02:28:07;;;;;;;;;8.75;8.25;;;;;;;;5091231;27;49683;-64
2021/10/30 02:30:32;;;;;;;;;9.75;9.75;;;;;;;;5097152;27;49886;-65
2021/10/30 02:32:57;;;;;;;;;12.00;11.25;;;;;;;;5091168;27;49665;-64
2021/10/30 02:35:23;;;;;;;;;11.75;10.00;;;;;;;;5092588;27;49668;-65
2021/10/30 02:37:48;;;;;;;;;11.75;10.75;;;;;;;;5092379;27;49638;-65
2021/10/30 02:40:13;;;;;;;;;14.25;13.00;;;;;;;;5091573;27;49913;-65
2021/10/30 02:42:38;;;;;;;;;13.00;13.00;;;;;;;;5091084;27;54895;-67
2021/10/30 02:45:04;;;;;;;;;12.75;11.00;;;;;;;;5092004;27;61797;-64
2021/10/30 02:47:29;;;;;;;;;13.75;12.50;;;;;;;;5092760;27;50067;-64
2021/10/30 02:49:54;;;;;;;;;14.00;13.25;;;;;;;;5091214;27;49597;-65
2021/10/30 02:52:20;;;;;;;;;12.50;11.50;;;;;;;;5090309;27;60890;-64
2021/10/30 02:54:45;;;;;;;;;13.00;12.00;;;;;;;;5092193;27;49735;-65
2021/10/30 02:57:10;;;;;;;;;13.25;11.00;;;;;;;;5092464;27;49734;-64
2021/10/30 02:59:35;;;;;;;;;14.00;13.00;;;;;;;;5092516;27;49611;-64
2021/10/30 03:02:00;;;;;;;;;17.00;15.00;;;;;;;;5091826;27;49647;-64
2021/10/30 03:04:25;;;;;;;;;15.00;13.75;;;;;;;;5092037;27;49757;-64
2021/10/30 03:06:51;;;;;;;;;9.00;8.50;;;;;;;;5091674;27;51074;-64
2021/10/30 03:09:16;;;;;;;;;15.25;14.00;;;;;;;;5090775;27;49668;-64
2021/10/30 03:11:42;;;;;;;;;11.50;11.25;;;;;;;;5091943;27;51047;-65
2021/10/30 03:14:07;;;;;;;;;14.00;14.00;;;;;;;;5091681;27;54683;-64
2021/10/30 03:16:32;;;;;;;;;17.75;14.50;;;;;;;;5092117;27;49691;-66
2021/10/30 03:18:57;;;;;;;;;19.25;18.50;;;;;;;;5092082;27;49858;-65
2021/10/30 03:21:23;;;;;;;;;16.75;14.50;;;;;;;;5091403;27;49821;-65
2021/10/30 03:23:48;;;;;;;;;15.25;14.00;;;;;;;;5091882;27;49529;-65
2021/10/30 03:26:13;;;;;;;;;14.50;14.50;;;;;;;;5091589;27;51111;-64
2021/10/30 03:28:38;;;;;;;;;12.50;12.25;;;;;;;;5092271;27;49965;-64
2021/10/30 03:31:03;;;;;;;;;14.75;14.75;;;;;;;;5090484;27;50223;-65
2021/10/30 03:33:29;;;;;;;;;13.25;13.25;;;;;;;;5091743;27;49737;-66
2021/10/30 03:35:54;;;;;;;;;14.75;14.75;;;;;;;;5090280;27;49790;-64
2021/10/30 03:38:19;;;;;;;;;12.75;12.75;;;;;;;;5091532;27;49566;-64
2021/10/30 03:40:44;;;;;;;;;14.00;14.00;;;;;;;;5091788;27;50853;-64
2021/10/30 03:43:10;;;;;;;;;17.75;14.75;;;;;;;;5091055;27;64201;-71
2021/10/30 03:45:35;;;;;;;;;16.50;15.00;;;;;;;;5091499;27;49689;-64
2021/10/30 03:48:04;;;;;;;;;12.00;12.00;;;;;;;;5089560;27;49802;-64
2021/10/30 03:50:29;;;;;;;;;15.50;14.75;;;;;;;;5090974;27;49821;-64
2021/10/30 03:52:54;;;;;;;;;15.25;15.25;;;;;;;;5091256;27;49876;-64
2021/10/30 03:55:19;;;;;;;;;11.75;8.75;;;;;;;;5091283;27;50023;-64
2021/10/30 03:57:45;;;;;;;;;15.25;15.25;;;;;;;;5091873;27;49998;-63
2021/10/30 04:00:10;;;;;;;;;11.50;11.50;;;;;;;;5090549;27;65384;-64
2021/10/30 04:02:35;;;;;;;;;14.50;14.50;;;;;;;;5091056;27;49812;-64
2021/10/30 04:05:00;;;;;;;;;13.50;12.50;;;;;;;;5091009;27;49869;-64
2021/10/30 04:07:25;;;;;;;;;14.75;14.75;;;;;;;;5090423;27;52293;-64
2021/10/30 04:09:52;;;;;;;;;14.50;14.00;;;;;;;;5090843;27;50769;-64
2021/10/30 04:12:17;;;;;;;;;10.00;9.50;;;;;;;;5090788;27;49692;-64
2021/10/30 04:14:42;;;;;;;;;15.50;12.50;;;;;;;;5091218;27;49578;-65
2021/10/30 04:17:07;;;;;;;;;12.00;12.00;;;;;;;;5091172;27;49589;-64
2021/10/30 04:19:32;;;;;;;;;12.25;12.25;;;;;;;;5090430;27;58696;-65
2021/10/30 04:21:58;;;;;;;;;14.75;12.50;;;;;;;;5090439;27;62646;-64
2021/10/30 04:24:23;;;;;;;;;13.50;11.25;;;;;;;;5090838;27;49584;-65
2021/10/30 04:26:48;;;;;;;;;13.00;12.25;;;;;;;;5090669;27;56150;-65
2021/10/30 04:29:14;;;;;;;;;12.00;12.00;;;;;;;;5090830;27;50729;-64
2021/10/30 04:31:39;;;;;;;;;11.00;9.75;;;;;;;;5090776;27;49682;-64
2021/10/30 04:34:06;;;;;;;;;12.50;11.75;;;;;;;;5090653;27;49885;-76
2021/10/30 04:36:32;;;;;;;;;10.00;9.50;;;;;;;;5090903;27;49865;-64
2021/10/30 04:38:58;;;;;;;;;13.75;12.50;;;;;;;;5090756;27;50492;-72
2021/10/30 04:41:23;;;;;;;;;7.00;7.00;;;;;;;;5090780;27;49643;-67
2021/10/30 04:43:48;;;;;;;;;10.25;8.25;;;;;;;;5091138;27;49985;-65
2021/10/30 04:46:14;;;;;;;;;13.50;10.50;;;;;;;;5091432;27;49806;-64
2021/10/30 04:48:39;;;;;;;;;12.25;10.75;;;;;;;;5089081;27;49993;-71
2021/10/30 04:51:05;;;;;;;;;13.00;11.75;;;;;;;;5089884;27;56081;-65
2021/10/30 04:53:31;;;;;;;;;9.00;9.00;;;;;;;;5090794;27;49598;-64
2021/10/30 04:55:56;;;;;;;;;11.50;10.50;;;;;;;;5090959;27;49686;-74
2021/10/30 04:58:21;;;;;;;;;13.50;11.25;;;;;;;;5091049;27;50083;-68
2021/10/30 05:00:46;;;;;;;;;11.50;11.25;;;;;;;;5092894;27;63457;-68
2021/10/30 05:03:12;;;;;;;;;14.75;12.00;;;;;;;;5093254;27;50136;-77
2021/10/30 05:05:37;;;;;;;;;11.75;11.00;;;;;;;;5093411;27;55666;-65
2021/10/30 05:08:02;;;;;;;;;11.50;9.00;;;;;;;;5093624;27;49745;-71
2021/10/30 05:10:27;;;;;;;;;10.25;10.25;;;;;;;;5092598;27;49657;-65
2021/10/30 05:12:52;;;;;;;;;8.50;7.75;;;;;;;;5094182;27;49694;-76
2021/10/30 05:15:18;;;;;;;;;9.75;9.75;;;;;;;;5094134;27;50860;-69
2021/10/30 05:17:43;;;;;;;;;11.50;10.25;;;;;;;;5093852;27;49703;-66
2021/10/30 05:20:08;;;;;;;;;15.50;13.50;;;;;;;;5093434;27;64092;-69
2021/10/30 05:22:33;;;;;;;;;6.25;6.25;;;;;;;;5092977;27;49803;-67
2021/10/30 05:24:59;;;;;;;;;11.25;11.25;;;;;;;;5094279;27;49648;-72
2021/10/30 05:27:24;;;;;;;;;13.00;11.25;;;;;;;;5093625;27;52877;-67
2021/10/30 05:29:49;;;;;;;;;8.00;8.00;;;;;;;;5075029;27;64411;-69
2021/10/30 05:32:14;;;;;;;;;11.00;9.50;;;;;;;;5093738;27;49956;-68
2021/10/30 05:34:40;;;;;;;;;9.25;9.25;;;;;;;;5093807;27;49857;-65
2021/10/30 05:37:05;;;;;;;;;10.75;10.75;;;;;;;;5093647;27;51326;-78
2021/10/30 05:39:30;;;;;;;;;10.50;8.00;;;;;;;;5093406;27;49637;-85
2021/10/30 05:41:55;;;;;;;;;8.75;8.00;;;;;;;;5093734;27;49901;-65
2021/10/30 05:44:21;;;;;;;;;7.25;7.25;;;;;;;;5093738;27;49927;-70
2021/10/30 05:46:46;;;;;;;;;12.00;11.75;;;;;;;;5093413;27;49951;-66
2021/10/30 05:49:13;;;;;;;;;9.25;9.25;;;;;;;;5091788;27;49718;-66
2021/10/30 05:51:39;;;;;;;;;12.00;10.75;;;;;;;;5093961;27;49897;-66
2021/10/30 05:54:04;;;;;;;;;7.75;7.00;;;;;;;;5093588;27;49719;-65
2021/10/30 05:56:29;;;;;;;;;10.50;8.75;;;;;;;;5093099;27;55486;-65
2021/10/30 05:58:54;;;;;;;;;9.75;9.75;;;;;;;;5093329;27;49707;-70
2021/10/30 06:01:19;;;;;;;;;9.75;8.50;;;;;;;;5093651;27;49740;-79
2021/10/30 06:03:45;;;;;;;;;8.25;8.25;;;;;;;;5093633;27;49758;-65
2021/10/30 06:06:10;;;;;;;;;7.25;7.00;;;;;;;;5092178;27;57842;-65
2021/10/30 06:08:35;;;;;;;;;7.50;7.50;;;;;;;;5091657;27;49898;-69
2021/10/30 06:11:00;;;;;;;;;11.00;10.00;;;;;;;;5092501;27;49888;-65
2021/10/30 06:13:25;;;;;;;;;9.25;8.00;;;;;;;;5093222;27;49570;-65
2021/10/30 06:15:51;;;;;;;;;7.00;7.00;;;;;;;;5093297;27;50607;-65
2021/10/30 06:18:16;;;;;;;;;7.75;6.75;;;;;;;;5092621;27;55273;-65
2021/10/30 06:20:41;;;;;;;;;12.25;9.25;;;;;;;;5092629;27;49552;-65
2021/10/30 06:23:11;;;;;;;;;10.50;9.50;;;;;;;;5093486;27;49897;-65
2021/10/30 06:25:38;;;;;;;;;7.75;6.50;;;;;;;;5092627;27;50262;-65
2021/10/30 06:28:03;;;;;;;;;7.00;7.00;;;;;;;;5092694;27;49737;-65
2021/10/30 06:30:28;;;;;;;;;7.50;6.75;;;;;;;;5091898;27;49778;-65
2021/10/30 06:32:54;;;;;;;;;11.00;9.00;;;;;;;;5092621;27;49975;-70
2021/10/30 06:35:19;;;;;;;;;8.25;8.25;;;;;;;;5092092;27;49709;-66
2021/10/30 06:37:45;;;;;;;;;11.25;10.00;;;;;;;;5108161;27;49523;-68
2021/10/30 06:40:10;;;;;;;;;14.00;10.00;;;;;;;;5093873;27;50123;-67
2021/10/30 06:42:36;;;;;;;;;10.50;10.50;;;;;;;;5112088;27;49886;-67
2021/10/30 06:45:01;;;;;;;;;7.75;7.75;;;;;;;;5111791;27;49753;-67
2021/10/30 06:47:26;;;;;;;;;8.75;6.75;;;;;;;;5095609;27;49675;-67
2021/10/30 06:49:53;;;;;;;;;9.00;8.25;;;;;;;;5078646;27;49791;-67
2021/10/30 06:52:18;;;;;;;;;10.00;10.00;;;;;;;;5073868;27;49888;-67
2021/10/30 06:54:44;;;;;;;;;7.75;7.75;;;;;;;;5079328;27;52480;-68
2021/10/30 06:57:09;;;;;;;;;9.25;7.00;;;;;;;;5072081;27;50040;-68
2021/10/30 06:59:35;;;;;;;;;6.00;6.00;;;;;;;;5070429;28;49965;-67
2021/10/30 07:02:01;;;;;;;;;8.00;6.50;;;;;;;;5068802;27;49790;-67
2021/10/30 07:04:26;;;;;;;;;5.50;5.50;;;;;;;;5082748;27;50698;-68
2021/10/30 07:06:51;;;;;;;;;6.00;5.75;;;;;;;;5090569;27;49848;-68
2021/10/30 07:09:17;;;;;;;;;6.00;6.00;;;;;;;;5090103;27;49743;-68
2021/10/30 07:11:44;;;;;;;;;6.50;5.00;;;;;;;;5090857;27;49680;-68
2021/10/30 07:14:09;;;;;;;;;6.25;6.25;;;;;;;;5089575;27;50265;-69
2021/10/30 07:16:35;;;;;;;;;8.00;7.50;;;;;;;;5090831;27;49683;-67
2021/10/30 07:19:00;;;;;;;;;9.25;7.00;;;;;;;;5091517;27;50010;-66
2021/10/30 07:21:25;;;;;;;;;6.50;6.00;;;;;;;;5076968;27;49835;-67
2021/10/30 07:23:52;;;;;;;;;7.75;7.00;;;;;;;;5093659;27;51093;-68
2021/10/30 07:26:17;;;;;;;;;11.00;9.00;;;;;;;;5077231;27;49926;-67
2021/10/30 07:28:42;;;;;;;;;10.50;4.25;;;;;;;;5071510;27;49652;-68
2021/10/30 07:31:07;;;;;;;;;6.00;6.00;;;;;;;;5079614;27;49842;-68
2021/10/30 07:33:33;;;;;;;;;5.25;5.25;;;;;;;;5081774;27;50092;-67
2021/10/30 07:35:58;;;;;;;;;6.75;6.75;;;;;;;;5091217;27;49838;-68
2021/10/30 07:38:24;;;;;;;;;6.00;4.50;;;;;;;;5072911;27;49845;-68
2021/10/30 07:40:50;;;;;;;;;6.50;6.50;;;;;;;;5090275;27;49795;-67
2021/10/30 07:43:15;;;;;;;;;5.25;5.25;;;;;;;;5091920;27;52499;-68
2021/10/30 07:45:40;;;;;;;;;6.00;6.00;;;;;;;;5105504;27;49774;-70
2021/10/30 07:48:05;;;;;;;;;7.25;5.00;;;;;;;;5071717;27;49872;-69
2021/10/30 07:50:31;;;;;;;;;8.75;7.25;;;;;;;;5089579;27;49628;-68
2021/10/30 07:52:59;;;;;;;;;7.50;5.50;;;;;;;;5078824;27;51328;-71
2021/10/30 07:55:24;;;;;;;;;7.00;7.00;;;;;;;;5086499;27;49747;-68
2021/10/30 07:57:50;;;;;;;;;11.75;9.00;;;;;;;;5098066;27;49552;-67
2021/10/30 08:00:15;;;;;;;;;8.00;7.25;;;;;;;;5081197;27;49714;-67
2021/10/30 08:02:40;;;;;;;;;7.00;6.00;;;;;;;;5083126;27;51290;-69
2021/10/30 08:05:06;;;;;;;;;6.75;6.75;;;;;;;;5072613;27;49958;-67
2021/10/30 08:07:33;;;;;;;;;8.75;8.75;;;;;;;;5089677;27;49852;-67
2021/10/30 08:09:58;;;;;;;;;6.00;6.00;;;;;;;;5089966;27;49606;-67
2021/10/30 08:12:23;;;;;;;;;10.00;9.00;;;;;;;;5072124;27;51274;-67
2021/10/30 08:14:49;;;;;;;;;5.00;5.00;;;;;;;;5105087;27;50113;-67
2021/10/30 08:17:14;;;;;;;;;8.00;7.00;;;;;;;;5110855;27;49664;-67
2021/10/30 08:19:39;;;;;;;;;7.75;7.00;;;;;;;;5093307;27;49552;-68
2021/10/30 08:22:05;;;;;;;;;5.75;5.00;;;;;;;;5090527;27;50735;-67
2021/10/30 08:24:30;;;;;;;;;6.25;5.00;;;;;;;;5090955;27;49642;-67
2021/10/30 08:26:55;;;;;;;;;7.75;6.50;;;;;;;;5089888;27;49900;-68
2021/10/30 08:29:21;;;;;;;;;8.00;7.00;;;;;;;;5091087;27;49722;-68
2021/10/30 08:31:46;;;;;;;;;6.00;6.00;;;;;;;;5090500;27;50467;-68
2021/10/30 08:34:11;;;;;;;;;7.50;5.00;;;;;;;;5071863;27;49762;-68
2021/10/30 08:36:37;;;;;;;;;6.00;6.00;;;;;;;;5092874;27;49923;-68
2021/10/30 08:39:02;;;;;;;;;9.50;7.00;;;;;;;;5093143;27;49659;-67
2021/10/30 08:41:28;;;;;;;;;6.75;6.75;;;;;;;;5093105;27;50053;-67
2021/10/30 08:43:53;;;;;;;;;7.25;6.75;;;;;;;;5094365;27;49696;-68
2021/10/30 08:46:19;;;;;;;;;7.25;6.00;;;;;;;;5094273;27;49910;-67
2021/10/30 08:48:45;;;;;;;;;7.00;7.00;;;;;;;;5093023;27;49611;-67
2021/10/30 08:51:10;;;;;;;;;7.75;7.25;;;;;;;;5094410;27;50042;-67
2021/10/30 08:53:35;;;;;;;;;8.00;6.00;;;;;;;;5094260;27;49579;-67
2021/10/30 08:56:03;;;;;;;;;8.75;7.75;;;;;;;;5093082;27;49759;-67
2021/10/30 08:58:40;;;;;;;;;9.25;8.00;;;;;;;;5093018;27;49635;-83
2021/10/30 09:01:08;;;;;;;;;6.00;5.00;;;;;;;;5094381;27;51159;-67
2021/10/30 09:03:33;;;;;;;;;8.00;8.00;;;;;;;;5093909;27;50047;-68
2021/10/30 09:05:59;;;;;;;;;6.50;6.50;;;;;;;;5092207;27;49968;-69
2021/10/30 09:08:27;;;;;;;;;8.75;7.50;;;;;;;;5072500;27;49623;-68
2021/10/30 09:10:57;;;;;;;;;6.00;6.00;;;;;;;;5084408;27;50592;-69
2021/10/30 09:14:01;;;;;;;;;7.00;7.00;;;;;;;;5075246;27;49815;-80
2021/10/30 09:16:26;;;;;;;;;5.00;5.00;;;;;;;;5092750;27;49804;-72
2021/10/30 09:18:51;;;;;;;;;7.50;6.50;;;;;;;;5075333;27;49869;-73
2021/10/30 09:21:19;;;;;;;;;9.25;8.00;;;;;;;;5093571;27;49766;-73
2021/10/30 09:23:47;;;;;;;;;6.25;6.00;;;;;;;;5092537;27;49894;-75
2021/10/30 09:26:19;;;;;;;;;6.75;5.75;;;;;;;;5075325;27;49687;-73
2021/10/30 09:28:52;;;;;;;;;5.75;5.75;;;;;;;;5091647;27;50001;-73
2021/10/30 09:31:18;;;;;;;;;5.00;5.00;;;;;;;;5091025;27;50673;-67
2021/10/30 09:33:59;;;;;;;;;5.00;5.00;;;;;;;;5090925;27;49925;-68
2021/10/30 09:36:31;;;;;;;;;4.25;4.25;;;;;;;;5092561;27;50116;-68
2021/10/30 09:38:57;;;;;;;;;4.50;4.50;;;;;;;;5092567;27;49808;-67
2021/10/30 09:41:28;;;;;;;;;4.75;3.50;;;;;;;;5092000;27;50571;-67
2021/10/30 09:43:54;;;;;;;;;4.00;4.00;;;;;;;;5093093;27;49876;-64
2021/10/30 09:46:19;;;;;;;;;4.25;3.00;;;;;;;;5093718;27;49774;-69
2021/10/30 09:48:45;;;;;;;;;2.50;2.50;;;;;;;;5093356;27;49757;-69
2021/10/30 09:51:10;;;;;;;;;3.00;3.00;;;;;;;;5093182;27;49796;-69
2021/10/30 09:53:36;;;;;;;;;3.00;3.00;;;;;;;;5074432;27;49718;-69
2021/10/30 09:56:05;;;;;;;;;3.25;2.00;;;;;;;;5093375;27;49716;-70
2021/10/30 09:58:33;;;;;;;;;3.00;2.00;;;;;;;;5093251;27;49698;-67
2021/10/30 10:00:58;;;;;;;;;3.75;3.75;;;;;;;;5092912;27;50531;-68
2021/10/30 10:03:24;;;;;;;;;3.25;3.25;;;;;;;;5091562;27;49711;-70
2021/10/30 10:05:50;;;;;;;;;2.75;2.75;;;;;;;;5092277;27;49680;-72
2021/10/30 10:08:15;;;;;;;;;3.75;3.75;;;;;;;;5083183;27;49894;-73
2021/10/30 10:10:40;;;;;;;;;2.00;2.00;;;;;;;;5090077;27;50802;-79
2021/10/30 10:13:06;;;;;;;;;7.75;7.75;;;;;;;;5095727;27;49968;-79
2021/10/30 10:15:31;;;;;;;;;2.00;2.00;;;;;;;;5076003;27;49953;-78
2021/10/30 10:17:57;;;;;;;;;4.00;4.00;;;;;;;;5073834;27;49802;-76
2021/10/30 10:20:22;;;;;;;;;3.00;3.00;;;;;;;;5072458;27;51154;-77
2021/10/30 10:22:48;;;;;;;;;5.25;5.25;;;;;;;;5091141;27;49595;-77
2021/10/30 10:25:29;;;;;;;;;4.00;4.00;;;;;;;;5069582;27;49674;-80
2021/10/30 10:27:55;;;;;;;;;7.00;6.00;;;;;;;;5069193;27;50072;-79
2021/10/30 10:30:20;;;;;;;;;3.25;3.00;;;;;;;;5053872;28;52378;-77
2021/10/30 10:32:48;;;;;;;;;3.00;3.00;;;;;;;;5074756;27;49765;-81
2021/10/30 10:35:21;;;;;;;;;4.25;4.25;;;;;;;;5069283;28;49743;-84
2021/10/30 10:37:47;;;;;;;;;2.00;2.00;;;;;;;;5070805;27;50026;-80
2021/10/30 10:40:31;;;;;;;;;3.75;3.25;;;;;;;;5069903;27;50248;-72
2021/10/30 10:42:56;;;;;;;;;3.50;2.75;;;;;;;;5073363;27;49814;-76
2021/10/30 10:45:22;;;;;;;;;5.00;5.00;;;;;;;;5072214;28;49827;-78
2021/10/30 10:47:53;;;;;;;;;4.75;3.75;;;;;;;;5069840;27;50031;-79
2021/10/30 10:50:30;;;;;;;;;5.00;5.00;;;;;;;;5070249;27;50326;-82
2021/10/30 10:52:58;;;;;;;;;4.00;4.00;;;;;;;;5071215;27;49640;-83
2021/10/30 10:55:24;;;;;;;;;4.00;4.00;;;;;;;;5071342;28;49754;-78
2021/10/30 10:57:49;;;;;;;;;7.00;3.50;;;;;;;;5073866;27;49859;-68
2021/10/30 11:00:16;;;;;;;;;6.00;5.50;;;;;;;;5070816;27;49722;-68
2021/10/30 11:02:51;;;;;;;;;4.00;4.00;;;;;;;;5085254;27;49778;-70
2021/10/30 11:05:23;;;;;;;;;5.00;5.00;;;;;;;;5090375;27;50188;-69
2021/10/30 11:07:51;;;;;;;;;6.00;4.00;;;;;;;;5088015;27;49948;-75
2021/10/30 11:10:20;;;;;;;;;5.75;5.75;;;;;;;;5078161;27;50083;-69
2021/10/30 11:13:06;;;;;;;;;4.00;4.00;;;;;;;;5096202;27;49914;-69
2021/10/30 11:15:38;;;;;;;;;3.00;3.00;;;;;;;;5093151;27;49769;-69
2021/10/30 11:18:09;;;;;;;;;6.00;5.00;;;;;;;;5096260;27;49572;-75
2021/10/30 11:20:42;;;;;;;;;3.00;3.00;;;;;;;;5102220;27;51604;-86
2021/10/30 11:23:15;;;;;;;;;4.75;4.75;;;;;;;;5081704;27;49825;-87
2021/10/30 11:25:41;;;;;;;;;4.00;4.00;;;;;;;;5106470;27;49343;-87
2021/10/30 11:28:06;;;;;;;;;3.00;3.00;;;;;;;;5099351;27;49960;-87
2021/10/30 11:30:31;;;;;;;;;1.75;1.50;;;;;;;;5100017;27;49795;-86
2021/10/30 11:33:15;;;;;;;;;3.00;3.00;;;;;;;;5095010;27;49910;-85
2021/10/30 11:35:54;;;;;;;;;4.00;4.00;;;;;;;;5098880;27;49758;-86
2021/10/30 11:38:24;;;;;;;;;3.00;3.00;;;;;;;;5096205;27;49515;-85
2021/10/30 11:40:56;;;;;;;;;3.50;3.50;;;;;;;;5096492;27;50002;-84
2021/10/30 11:43:23;;;;;;;;;6.50;5.50;;;;;;;;5102563;27;49776;-83
2021/10/30 11:45:49;;;;;;;;;3.75;3.75;;;;;;;;5078162;27;49842;-85
2021/10/30 11:48:15;;;;;;;;;4.00;3.25;;;;;;;;5095138;27;50006;-84
2021/10/30 11:50:54;;;;;;;;;4.00;4.00;;;;;;;;5102542;27;49762;-82
2021/10/30 11:53:31;;;;;;;;;3.00;3.00;;;;;;;;5097223;27;49797;-85
2021/10/30 11:55:59;;;;;;;;;3.00;3.00;;;;;;;;5097373;27;49463;-86
2021/10/30 11:58:37;;;;;;;;;3.00;3.00;;;;;;;;5090606;27;50317;-87
2021/10/30 12:12:26;;;;;;;;;3.00;3.00;;;;;;;;6140370;22;48937;31
2021/10/30 12:15:16;;;;;;;;;2.50;2.00;;;;;;;;5067879;22;50064;31
2021/10/30 12:17:42;;;;;;;;;4.00;3.00;;;;;;;;5010136;28;50244;-75
2021/10/30 12:20:13;;;;;;;;;6.00;5.00;;;;;;;;5000428;28;49709;-75
2021/10/30 12:22:41;;;;;;;;;3.00;2.75;;;;;;;;4991842;28;51172;-74
2021/10/30 12:25:08;;;;;;;;;4.00;4.00;;;;;;;;5028194;28;49750;-74
2021/10/30 12:27:34;;;;;;;;;3.00;3.00;;;;;;;;5007293;28;50158;-74
2021/10/30 12:30:06;;;;;;;;;3.00;3.00;;;;;;;;5008196;28;49941;-75
2021/10/30 12:32:41;;;;;;;;;4.00;4.00;;;;;;;;5028496;28;50186;-74
2021/10/30 12:35:07;;;;;;;;;5.00;5.00;;;;;;;;5008023;28;49779;-75
2021/10/30 12:37:36;;;;;;;;;3.75;3.75;;;;;;;;4990656;28;50047;-75
2021/10/30 12:40:01;;;;;;;;;4.00;4.00;;;;;;;;5008031;28;49990;-78
2021/10/30 12:42:32;;;;;;;;;4.50;4.50;;;;;;;;4989762;28;52306;-78
2021/10/30 12:44:57;;;;;;;;;6.50;6.50;;;;;;;;5023817;28;49824;-78
2021/10/30 12:47:30;;;;;;;;;4.25;4.25;;;;;;;;5028982;28;50009;-77
2021/10/30 12:49:56;;;;;;;;;5.00;4.25;;;;;;;;5045971;28;49744;-77
2021/10/30 12:52:23;;;;;;;;;6.75;3.00;;;;;;;;5028515;28;51195;-77
2021/10/30 12:54:56;;;;;;;;;4.00;4.00;;;;;;;;5028563;28;49697;-77
2021/10/30 12:57:24;;;;;;;;;6.00;5.00;;;;;;;;5048531;28;50052;-76
2021/10/30 13:00:06;;;;;;;;;4.25;3.50;;;;;;;;5028523;28;49841;-77
2021/10/30 13:02:31;;;;;;;;;3.50;3.50;;;;;;;;5042739;28;49687;-76
2021/10/30 13:04:56;;;;;;;;;3.25;3.00;;;;;;;;5028174;28;49731;-75
2021/10/30 13:07:27;;;;;;;;;4.50;4.50;;;;;;;;5050109;28;49858;-75
2021/10/30 13:09:53;;;;;;;;;5.00;5.00;;;;;;;;5045273;28;49777;-76
2021/10/30 13:12:19;;;;;;;;;6.00;4.00;;;;;;;;5049098;28;49971;-75
2021/10/30 13:14:47;;;;;;;;;6.00;6.00;;;;;;;;5049594;28;50487;-75
2021/10/30 13:17:12;;;;;;;;;2.00;2.00;;;;;;;;5046955;28;49996;-75
2021/10/30 13:19:37;;;;;;;;;2.00;2.00;;;;;;;;5031631;28;49945;-74
2021/10/30 13:22:03;;;;;;;;;5.00;5.00;;;;;;;;5051568;28;50300;-74
2021/10/30 13:24:28;;;;;;;;;3.75;3.75;;;;;;;;5035073;28;50002;-73
2021/10/30 13:26:53;;;;;;;;;3.50;3.50;;;;;;;;5053174;28;49838;-73
2021/10/30 13:29:18;;;;;;;;;1.25;1.25;;;;;;;;5035021;28;49719;-73
2021/10/30 13:31:44;;;;;;;;;2.50;2.50;;;;;;;;5019943;28;51050;-73
2021/10/30 13:34:09;;;;;;;;;2.00;2.00;;;;;;;;5024239;28;49809;-73
2021/10/30 13:36:35;;;;;;;;;0.25;0.25;;;;;;;;5048578;28;49746;-73
2021/10/30 13:39:00;;;;;;;;;3.00;3.00;;;;;;;;5025205;28;49836;-74
2021/10/30 13:41:27;;;;;;;;;2.00;2.00;;;;;;;;5049966;28;50647;-74
2021/10/30 13:43:52;;;;;;;;;4.00;4.00;;;;;;;;5052771;28;50004;-74
2021/10/30 13:46:19;;;;;;;;;2.50;2.50;;;;;;;;5052866;28;49835;-74
2021/10/30 13:48:44;;;;;;;;;4.00;3.50;;;;;;;;5034570;28;49938;-74
2021/10/30 13:51:09;;;;;;;;;3.00;3.00;;;;;;;;5052455;28;50580;-73
2021/10/30 13:53:35;;;;;;;;;5.00;4.00;;;;;;;;5046914;28;49799;-74
2021/10/30 13:56:00;;;;;;;;;5.75;5.25;;;;;;;;5020631;28;49718;-74
2021/10/30 13:58:25;;;;;;;;;6.50;5.50;;;;;;;;5052734;28;50253;-74
2021/10/30 14:00:50;;;;;;;;;4.50;4.50;;;;;;;;5034328;28;52583;-74
2021/10/30 14:03:15;;;;;;;;;4.00;2.75;;;;;;;;5052422;28;49752;-74
2021/10/30 14:05:41;;;;;;;;;3.75;3.75;;;;;;;;5052469;28;49862;-74
2021/10/30 14:08:06;;;;;;;;;5.25;3.00;;;;;;;;5052461;28;50237;-74
2021/10/30 14:10:31;;;;;;;;;3.00;3.00;;;;;;;;5052263;28;50617;-74
2021/10/30 14:12:56;;;;;;;;;3.75;3.75;;;;;;;;5052388;28;49835;-74
2021/10/30 14:15:22;;;;;;;;;3.25;3.25;;;;;;;;5052397;28;49784;-74
2021/10/30 14:17:47;;;;;;;;;5.00;3.00;;;;;;;;5051288;28;49840;-73
2021/10/30 14:20:12;;;;;;;;;3.25;3.00;;;;;;;;5052139;28;50299;-74
2021/10/30 14:22:37;;;;;;;;;2.00;2.00;;;;;;;;5052195;28;49805;-73
2021/10/30 14:25:02;;;;;;;;;3.50;3.50;;;;;;;;5052179;28;49890;-74
2021/10/30 14:27:28;;;;;;;;;3.00;3.00;;;;;;;;5052576;28;49720;-77
2021/10/30 14:29:53;;;;;;;;;3.50;2.00;;;;;;;;5051961;28;49868;-74
2021/10/30 14:32:18;;;;;;;;;2.50;2.50;;;;;;;;5053484;28;49782;-72
2021/10/30 14:34:43;;;;;;;;;2.50;2.50;;;;;;;;5034904;28;50045;-70
2021/10/30 14:37:09;;;;;;;;;6.00;5.00;;;;;;;;5053182;28;49837;-68
2021/10/30 14:39:35;;;;;;;;;3.00;3.00;;;;;;;;5052393;28;50469;-72